Effective Sunday, March 17, 2024, the National Weather Service National Data Buoy Center will discontinue its Dial-A-Buoy Interactive Voice Response system. For more information, see Service Change Notice 24-06 (PDF).

Station FSKM2 - 8574728 - Francis Scott Key Bridge, MD Image indicating link to RSS feed of recent meteorological observations for station FSKM2


Conditions at FSKM2 as of
(5:18 am EST)
1018 GMT on 02/25/2024:
     

Click on the graph icon in the table below to see a time series plot of the last five days of that observation.

5-day plot - Wind Direction Wind Direction (WDIR): NE ( 40 deg true )
5-day plot - Wind Speed Wind Speed (WSPD): 4.1 kts
5-day plot - Wind Gust Wind Gust (GST): 6.0 kts
5-day plot - Air Temperature Air Temperature (ATMP): 29.7 °F
5-day plot - Wind Chill Wind Chill (CHILL): 24.6 °F
5-day plot - Wind Speed at 10 Meters Wind Speed at 10 meters (WSPD10M): 5.8 kts
5-day plot - Wind Speed at 20 Meters Wind Speed at 20 meters (WSPD20M): 5.8 kts
5-day plot -  Wind Speed, Wind Gust and Atmospheric Pressure Combined plot of Wind Speed, Gust, and Air Pressure
NOS Water Level Observation Network Water Level
Previous observations
TIME
(EST)
5-day plot - Wind Direction
WDIR
 
5-day plot - Wind Speed
WSPD
kts
5-day plot - Wind Gust
GST
kts
5-day plot - Wave Height
WVHT
ft
5-day plot - Dominant Wave Period
DPD
sec
5-day plot - Average Wave Period
APD
sec
5-day plot - Mean Wave Direction
MWD
 
5-day plot - Atmospheric Pressure
PRES
in
5-day plot - Pressure Tendency
PTDY
in
5-day plot - Air Temperature
ATMP
°F
5-day plot - Water Temperature
WTMP
°F
5-day plot - Dew Point
DEWP
°F
5-day plot - Salinity
SAL
psu
5-day plot - Visibility
VIS
nmi
5-day plot - Tide (above MLLW)
TIDE
ft
2024-02-25 05:12 am NE 5.1 6.0------ 29.8-----
2024-02-25 05:06 amNNE 4.1 5.1------ 29.8-----
2024-02-25 05:00 am NE 2.9 5.1------ 29.8-----
2024-02-25 04:54 am NE 4.1 5.1------ 30.0-----
2024-02-25 04:48 am NE 5.1 6.0------ 30.0-----
2024-02-25 04:42 amNNE 4.1 5.1------ 30.2-----
2024-02-25 04:36 am NE 4.1 5.1------ 29.8-----
2024-02-25 04:30 amNNE 5.1 6.0------ 30.0-----
2024-02-25 04:24 amNNE 5.1 6.0------ 30.2-----
2024-02-25 04:18 am NE 4.1 5.1------ 30.4-----
2024-02-25 04:12 amNNE 6.0 7.0------ 30.4-----
2024-02-25 04:06 am NE 6.0 7.0------ 30.4-----
2024-02-25 04:00 amNNE 5.1 6.0------------
2024-02-25 03:54 amNNE 6.0 7.0------------
2024-02-25 03:48 amNNE 5.1 7.0------ 30.6-----
2024-02-25 03:42 amNNE 5.1 6.0------ 30.7-----
2024-02-25 03:36 am N 5.1 6.0------ 30.7-----
2024-02-25 03:30 am N 6.0 7.0------ 30.6-----
2024-02-25 03:24 am N 6.0 7.0------ 30.9-----
2024-02-25 03:18 am N 6.0 8.9------ 30.9-----
2024-02-25 03:12 am N 6.0 8.0------ 31.1-----
2024-02-25 03:06 am N 5.1 6.0------ 31.1-----
2024-02-25 03:00 amNNE 5.1 6.0------ 30.9-----
2024-02-25 02:54 am N 5.1 7.0------ 31.1-----
2024-02-25 02:48 am N 5.1 6.0------ 31.1-----
2024-02-25 02:42 amNNE 5.1 7.0------ 31.1-----
2024-02-25 02:36 amNNE 5.1 7.0------ 31.3-----
2024-02-25 02:30 amNNE 5.1 7.0------ 31.3-----
2024-02-25 02:24 amNNE 5.1 6.0------ 31.3-----
2024-02-25 02:18 amNNE 5.1 7.0------ 31.5-----
2024-02-25 02:12 amNNE 6.0 7.0------ 31.5-----
2024-02-25 02:06 am N 6.0 7.0------ 31.5-----
2024-02-25 02:00 amNNE 6.0 8.9------ 31.5-----
2024-02-25 01:54 am N 6.0 8.0------ 31.6-----
2024-02-25 01:48 am N 6.0 8.0------ 31.5-----
2024-02-25 01:42 am N 7.0 8.0------ 31.6-----
2024-02-25 01:36 am N 7.0 8.0------ 31.8-----
2024-02-25 01:30 am N 7.0 8.9------ 32.0-----
2024-02-25 01:24 am N 8.0 9.9------ 32.0-----
2024-02-25 01:18 amNNE 6.0 7.0------ 32.2-----
2024-02-25 01:12 amNNE 5.1 6.0------ 32.4-----
2024-02-25 01:06 amNNE 5.1 7.0------ 32.4-----
2024-02-25 01:00 amNNE 5.1 6.0------ 32.4-----
2024-02-25 12:54 amNNE 5.1 6.0------ 32.5-----
2024-02-25 12:48 amNNE 6.0 7.0------ 32.5-----
2024-02-25 12:42 amNNE 5.1 7.0------ 32.9-----
2024-02-25 12:36 amNNE 6.0 8.0------ 32.7-----
2024-02-25 12:30 amNNE 7.0 8.9------ 32.9-----
2024-02-25 12:24 amNNE 7.0 8.9------ 33.1-----
2024-02-25 12:18 amNNE 8.0 9.9------ 33.1-----
2024-02-25 12:12 am N 8.9 9.9------ 33.3-----
2024-02-25 12:06 am N 8.0 9.9------ 33.4-----
2024-02-25 12:00 am N 8.0 11.1------ 33.6-----
2024-02-24 11:54 pm N 8.0 11.1------ 33.8-----
2024-02-24 11:48 pm N 7.0 8.9------------
2024-02-24 11:42 pm N 6.0 8.0------------
2024-02-24 11:36 pm N 6.0 7.0------------
2024-02-24 11:30 pm N 7.0 8.9------ 34.3-----
2024-02-24 11:24 pm N 8.0 8.9------ 34.3-----
2024-02-24 11:18 pm N 8.0 11.1------ 34.5-----
2024-02-24 11:12 pm N 7.0 8.0------ 34.7-----
2024-02-24 11:06 pm N 8.0 9.9------ 34.7-----
2024-02-24 11:00 pm N 8.0 9.9------ 34.9-----
2024-02-24 10:54 pm N 7.0 8.9------ 35.1-----
2024-02-24 10:48 pm N 6.0 8.0------ 35.1-----
2024-02-24 10:42 pm N 7.0 9.9------ 35.2-----
2024-02-24 10:36 pm N 6.0 8.0------ 35.2-----
2024-02-24 10:30 pm N 7.0 8.9------ 35.4-----
2024-02-24 10:24 pm N 8.9 11.1------ 35.6-----
2024-02-24 10:18 pm N 7.0 8.9------ 35.8-----
2024-02-24 10:12 pm N 7.0 8.0------ 35.8-----
2024-02-24 10:06 pm N 8.0 8.9------ 35.8-----
2024-02-24 10:00 pm N 7.0 8.9------ 36.1-----
2024-02-24 09:54 pm N 8.0 9.9------ 36.1-----
2024-02-24 09:48 pm N 8.0 9.9------ 36.3-----
2024-02-24 09:42 pm N 8.9 11.1------ 36.3-----
2024-02-24 09:36 pm N 8.9 12.0------ 36.3-----
2024-02-24 09:30 pm N 7.0 8.9------ 36.5-----
2024-02-24 09:24 pm N 8.9 11.1------ 36.7-----
2024-02-24 09:18 pm N 9.9 12.0------------
2024-02-24 09:12 pm N 11.1 12.0------------
2024-02-24 09:06 pm N 11.1 13.0------------
2024-02-24 09:00 pm N 12.0 14.0------------
2024-02-24 08:54 pm N 13.0 15.0------------
2024-02-24 08:48 pm N 7.0 9.9------------
2024-02-24 08:42 pm N 8.9 11.1------------
2024-02-24 08:36 pm N 8.9 11.1------------
2024-02-24 08:30 pm N 9.9 12.0------ 37.8-----
2024-02-24 08:24 pm N 8.9 12.0------ 37.9-----
2024-02-24 08:18 pm N 9.9 12.0------ 38.1-----
2024-02-24 08:12 pm N 9.9 12.0------ 38.3-----
2024-02-24 08:06 pm N 12.0 14.0------ 38.3-----
2024-02-24 08:00 pm N 12.0 13.0------------
2024-02-24 07:54 pm N 12.0 13.0------------
2024-02-24 07:48 pm N 11.1 14.0------------
2024-02-24 07:42 pm N 8.9 11.1------------
2024-02-24 07:36 pm N 11.1 12.0------------
2024-02-24 07:30 pm N 11.1 13.0------------
2024-02-24 07:24 pm N 11.1 13.0------------
2024-02-24 07:18 pm N 11.1 15.0------ 39.2-----
2024-02-24 07:12 pm N 11.1 12.0------ 39.4-----
2024-02-24 07:06 pmNNW 11.1 14.0------ 39.4-----
2024-02-24 07:00 pm N 11.1 14.0------ 39.6-----
2024-02-24 06:54 pmNNW 13.0 15.0------ 39.7-----
2024-02-24 06:48 pm N 12.0 15.0------ 39.7-----
2024-02-24 06:42 pm N 12.0 15.0------ 39.9-----
2024-02-24 06:36 pm N 11.1 14.0------ 39.9-----
2024-02-24 06:30 pm N 12.0 14.0------------
2024-02-24 06:24 pm N 12.0 15.0------------
2024-02-24 06:00 pm N 12.0 14.0------ 40.8-----
2024-02-24 05:54 pm N 14.0 15.9------ 40.8-----
2024-02-24 05:48 pm N 17.1 19.0------ 40.8-----
2024-02-24 05:42 pm N 17.1 19.0------ 41.2-----
2024-02-24 05:36 pm N 18.1 20.0------ 41.5-----
2024-02-24 05:30 pm N 14.0 18.1------ 41.9-----
2024-02-24 05:24 pm N 15.9 19.0------ 42.1-----
2024-02-24 05:18 pm N 12.0 14.0------------
2024-02-24 05:12 pm N 15.0 17.1------------
2024-02-24 05:06 pm N 13.0 15.9------------
2024-02-24 05:00 pm N 14.0 15.9------------
2024-02-24 04:54 pm N 14.0 17.1------------
2024-02-24 04:48 pmNNW 14.0 15.9------ 43.2-----
2024-02-24 04:42 pm N 14.0 15.9------ 43.7-----
2024-02-24 04:36 pm N 12.0 15.0------ 43.7-----
2024-02-24 04:30 pm N 12.0 15.0------ 43.7-----
2024-02-24 04:24 pm N 13.0 15.0------ 43.9-----
2024-02-24 04:18 pm N 13.0 15.9------ 44.1-----
2024-02-24 04:12 pmNNW 13.0 14.0------ 44.6-----
2024-02-24 04:06 pm N 12.0 14.0------ 44.6-----
2024-02-24 04:00 pm--------- 44.6-----
2024-02-24 03:54 pm--------- 45.0-----
2024-02-24 03:48 pm N 11.1 13.0------------
2024-02-24 03:42 pm N 11.1 13.0------------
2024-02-24 03:36 pm N 9.9 14.0------------
2024-02-24 03:30 pm N 8.0 9.9------ 45.5-----
2024-02-24 03:24 pm N 9.9 12.0------ 45.5-----
2024-02-24 03:18 pm--------- 45.5-----
2024-02-24 03:12 pm--------- 45.7-----
2024-02-24 03:06 pm--------- 45.7-----
2024-02-24 03:00 pmNNW 8.9 11.1------ 45.9-----
2024-02-24 02:54 pm N 8.9 12.0------ 46.2-----
2024-02-24 02:48 pm N 8.0 11.1------ 46.2-----
2024-02-24 02:42 pm N 7.0 8.9------ 46.4-----
2024-02-24 02:36 pm N 9.9 12.0------ 46.0-----
2024-02-24 02:30 pm N 9.9 12.0------ 46.0-----
2024-02-24 02:24 pm N 9.9 11.1------ 46.2-----
2024-02-24 02:18 pm N 9.9 12.0------ 46.0-----
2024-02-24 02:12 pm N 12.0 15.0------ 45.9-----
2024-02-24 02:06 pm N 8.9 11.1------ 46.2-----
2024-02-24 02:00 pm N 8.9 9.9------------
2024-02-24 01:54 pmNNW 9.9 11.1------------
2024-02-24 01:48 pm N 8.0 9.9------ 46.2-----
2024-02-24 01:42 pm N 9.9 12.0------ 46.4-----
2024-02-24 01:36 pm N 6.0 7.0------ 46.2-----
2024-02-24 01:30 pm NW 7.0 12.0------ 46.2-----
2024-02-24 01:24 pm N 7.0 8.9------ 46.2-----
2024-02-24 01:18 pm N 8.9 12.0------ 46.0-----
2024-02-24 01:12 pmNNW 8.0 11.1------ 46.0-----
2024-02-24 01:06 pmNNW 8.9 11.1------ 46.2-----
2024-02-24 01:00 pm N 8.9 11.1------------
2024-02-24 12:54 pm NW 8.9 9.9------------
2024-02-24 12:48 pmNNW 9.9 12.0------------
2024-02-24 12:42 pmNNW 8.9 11.1------------
2024-02-24 12:36 pm N 7.0 9.9------------
2024-02-24 12:30 pmNNW 11.1 13.0------ 45.7-----
2024-02-24 12:24 pmNNW 8.9 12.0------ 45.5-----
2024-02-24 12:18 pmNNW 8.9 11.1------ 45.5-----
2024-02-24 12:12 pm N 8.9 9.9------ 45.5-----
2024-02-24 12:06 pmNNW 11.1 12.0------ 45.5-----
2024-02-24 12:00 pmNNW 12.0 14.0------ 45.3-----
2024-02-24 11:54 am N 12.0 14.0------ 45.3-----
2024-02-24 11:48 am N 11.1 12.0------------
2024-02-24 11:42 am N 9.9 12.0------------
2024-02-24 11:36 am N 8.0 8.9------------
2024-02-24 11:30 am NW 8.9 9.9------------
2024-02-24 11:24 amNNW 9.9 11.1------------
2024-02-24 11:18 amNNW 9.9 12.0------ 45.1-----
2024-02-24 11:12 amNNW 8.0 8.9------ 45.3-----
2024-02-24 11:06 am N 8.0 8.9------ 45.3-----
2024-02-24 11:00 am N 9.9 11.1------------
2024-02-24 10:54 amNNW 8.9 9.9------------
2024-02-24 10:48 amNNW 11.1 12.0------------
2024-02-24 10:42 amNNW 8.0 8.9------------
2024-02-24 10:36 am N 7.0 8.0------------
2024-02-24 10:30 am N 5.1 5.1------ 45.3-----
2024-02-24 10:24 am N 4.1 6.0------ 45.3-----
2024-02-24 10:18 am N 7.0 8.0------ 45.3-----
2024-02-24 10:12 am N 5.1 6.0------ 45.0-----
2024-02-24 10:06 am N 8.0 8.9------ 45.0-----
2024-02-24 10:00 amNNW 7.0 8.0------------
2024-02-24 09:54 amNNW 7.0 8.0------------
2024-02-24 09:48 am N 6.0 8.0------------
2024-02-24 09:42 am N 7.0 12.0------------
2024-02-24 09:36 am N 6.0 7.0------------
2024-02-24 09:30 am N 6.0 8.0------ 44.6-----
2024-02-24 09:24 amNNW 8.0 9.9------ 44.2-----
2024-02-24 09:18 amNNW 8.9 12.0------ 44.4-----
2024-02-24 09:12 amNNW 8.9 13.0------ 44.2-----
2024-02-24 09:06 amNNW 8.0 9.9------ 44.1-----
2024-02-24 09:00 amNNW 8.9 11.1------ 44.2-----
2024-02-24 08:54 amNNW 8.9 11.1------ 44.1-----
2024-02-24 08:48 am NW 6.0 8.9------------
2024-02-24 08:42 am NW 6.0 7.0------------
2024-02-24 08:36 am NW 6.0 8.0------------
2024-02-24 08:30 amWNW 5.1 5.1------------
2024-02-24 08:24 am NW 4.1 5.1------------
2024-02-24 08:18 am NW 4.1 6.0------------
2024-02-24 08:12 am NW 5.1 7.0------------
2024-02-24 08:06 am NW 5.1 5.1------------
2024-02-24 08:00 am--------- 43.5-----
2024-02-24 07:54 am--------- 43.5-----
2024-02-24 07:48 am NW 5.1 6.0------ 43.3-----
2024-02-24 07:42 amNNW 6.0 7.0------ 43.3-----
2024-02-24 07:36 amNNW 7.0 8.0------ 43.5-----
2024-02-24 07:30 amNNW 8.0 8.0------------
2024-02-24 07:24 amNNW 8.0 8.9------------
2024-02-24 07:18 amNNW 8.0 8.9------------
2024-02-24 07:12 amNNW 8.0 8.9------------
2024-02-24 07:06 amNNW 8.9 8.9------------
2024-02-24 07:00 am NW 8.0 8.0------ 43.5-----
2024-02-24 06:54 amNNW 8.0 9.9------ 43.5-----
2024-02-24 06:48 amNNW 8.0 8.9------------
2024-02-24 06:42 amNNW 8.9 9.9------------
2024-02-24 06:36 amNNW 6.0 7.0------------
2024-02-24 06:30 amNNW 7.0 8.0------ 43.5-----
2024-02-24 06:24 amNNW 7.0 8.0------ 43.5-----
2024-02-24 06:18 amNNW 6.0 8.0------ 43.5-----
2024-02-24 06:12 am N 5.1 6.0------ 43.5-----
2024-02-24 06:06 am N 6.0 7.0------ 43.3-----
2024-02-24 06:00 am N 7.0 8.9------ 43.3-----
2024-02-24 05:54 am N 8.9 12.0------ 43.5-----
2024-02-24 05:48 am N 8.9 9.9------ 43.7-----
2024-02-24 05:42 am N 12.0 17.1------ 44.1-----
2024-02-24 05:36 am N 11.1 13.0------ 44.1-----
2024-02-24 05:30 amNNW 8.0 13.0------------
2024-02-24 05:24 am N 8.9 9.9------------
2024-02-24 05:18 am--------- 44.6-----
2024-02-24 05:12 am--------- 44.8-----
2024-02-24 05:06 am--------- 45.0-----
2024-02-24 05:00 am--------- 45.0-----
2024-02-24 04:54 am--------- 45.1-----